createdAt,value
2023-05-20T00:01:29.492Z,1.00
2023-05-20T00:03:57.975Z,1.00
2023-05-20T00:06:26.762Z,1.00
2023-05-20T00:08:55.724Z,1.00
2023-05-20T00:11:26.301Z,1.00
2023-05-20T00:13:54.600Z,1.00
2023-05-20T00:16:22.843Z,1.00
2023-05-20T00:18:51.202Z,1.00
2023-05-20T00:21:19.867Z,1.00
2023-05-20T00:23:48.162Z,1.00
2023-05-20T00:26:16.364Z,1.00
2023-05-20T00:28:46.084Z,1.00
2023-05-20T00:31:14.585Z,1.00
2023-05-20T00:33:42.883Z,1.00
2023-05-20T00:36:11.723Z,1.00
2023-05-20T00:38:39.993Z,1.00
2023-05-20T00:41:08.330Z,1.00
2023-05-20T00:43:36.828Z,1.00
2023-05-20T00:46:06.940Z,1.00
2023-05-20T00:48:43.556Z,1.00
2023-05-20T00:51:13.454Z,1.00
2023-05-20T00:53:43.081Z,1.00
2023-05-20T00:56:13.001Z,1.00
2023-05-20T00:58:41.845Z,1.00
2023-05-20T01:01:11.528Z,1.00
2023-05-20T01:03:42.312Z,1.00
2023-05-20T01:06:10.960Z,1.00
2023-05-20T01:08:39.216Z,1.00
2023-05-20T01:11:12.675Z,1.00
2023-05-20T01:13:48.643Z,1.00
2023-05-20T01:16:21.444Z,1.00
2023-05-20T01:18:52.193Z,1.00
2023-05-20T01:21:21.909Z,1.00
2023-05-20T01:23:51.745Z,1.00
2023-05-20T01:26:21.728Z,1.00
2023-05-20T01:28:51.099Z,1.00
2023-05-20T01:31:28.131Z,1.00
2023-05-20T01:34:04.682Z,1.00
2023-05-20T01:36:34.948Z,1.00
2023-05-20T01:39:09.328Z,1.00
2023-05-20T01:41:39.000Z,1.00
2023-05-20T01:44:07.973Z,1.00
2023-05-20T01:46:36.288Z,1.00
2023-05-20T01:49:05.706Z,1.00
2023-05-20T01:51:35.302Z,1.00
2023-05-20T01:54:05.114Z,1.00
2023-05-20T01:56:35.856Z,1.00
2023-05-20T01:59:04.320Z,1.00
2023-05-20T02:01:41.432Z,1.00
2023-05-20T02:04:09.845Z,1.00
2023-05-20T02:06:38.095Z,1.00
2023-05-20T02:09:07.790Z,1.00
2023-05-20T02:11:36.241Z,1.00
2023-05-20T02:14:04.523Z,1.00
2023-05-20T02:16:32.821Z,1.00
2023-05-20T02:19:02.230Z,1.00
2023-05-20T02:21:31.237Z,1.00
2023-05-20T02:23:59.523Z,1.00
2023-05-20T02:26:29.101Z,1.00
2023-05-20T02:28:57.345Z,1.00
2023-05-20T02:31:26.015Z,1.00
2023-05-20T02:33:54.566Z,1.00
2023-05-20T02:36:22.859Z,1.00
2023-05-20T02:38:51.179Z,1.00
2023-05-20T02:41:19.487Z,1.00
2023-05-20T02:43:49.236Z,1.00
2023-05-20T02:46:18.632Z,1.00
2023-05-20T02:48:47.119Z,1.00
2023-05-20T02:51:15.749Z,1.00
2023-05-20T02:53:44.012Z,1.00
2023-05-20T02:56:13.417Z,1.00
2023-05-20T02:58:41.862Z,1.00
2023-05-20T03:01:11.596Z,1.00
2023-05-20T03:03:40.738Z,1.00
2023-05-20T03:06:09.659Z,1.00
2023-05-20T03:08:40.231Z,1.00
2023-05-20T03:11:08.513Z,1.00
2023-05-20T03:13:36.767Z,1.00
2023-05-20T03:16:05.682Z,1.00
2023-05-20T03:18:35.592Z,1.00
2023-05-20T03:21:04.143Z,1.00
2023-05-20T03:23:32.396Z,1.00
2023-05-20T03:26:00.785Z,1.00
2023-05-20T03:28:29.063Z,1.00
2023-05-20T03:30:57.345Z,1.00
2023-05-20T03:33:27.274Z,1.00
2023-05-20T03:35:56.927Z,1.00
2023-05-20T03:38:25.173Z,1.00
2023-05-20T03:40:53.405Z,1.00
2023-05-20T03:43:21.776Z,1.00
2023-05-20T03:45:50.046Z,1.00
2023-05-20T03:48:18.250Z,1.00
2023-05-20T03:50:46.496Z,1.00
2023-05-20T03:53:17.399Z,1.00
2023-05-20T03:55:45.838Z,1.00
2023-05-20T03:58:15.233Z,1.00
2023-05-20T04:00:43.512Z,1.00
2023-05-20T04:03:12.441Z,1.00
2023-05-20T04:05:41.155Z,1.00
2023-05-20T04:08:09.906Z,1.00
2023-05-20T04:10:39.444Z,1.00
2023-05-20T04:13:07.636Z,1.00
2023-05-20T04:15:37.268Z,1.00
2023-05-20T04:18:06.527Z,1.00
2023-05-20T04:20:34.888Z,1.00
2023-05-20T04:23:03.116Z,1.00
2023-05-20T04:25:31.336Z,1.00
2023-05-20T04:28:01.394Z,1.00
2023-05-20T04:30:30.111Z,1.00
2023-05-20T04:32:58.370Z,1.00
2023-05-20T04:35:26.924Z,1.00
2023-05-20T04:37:55.347Z,1.00
2023-05-20T04:40:23.844Z,1.00
2023-05-20T04:42:52.040Z,1.00
2023-05-20T04:45:23.288Z,1.00
2023-05-20T04:47:53.200Z,1.00
2023-05-20T04:50:22.046Z,1.00
2023-05-20T04:52:50.627Z,1.00
2023-05-20T04:55:19.806Z,1.00
2023-05-20T04:57:48.076Z,1.00
2023-05-20T05:00:16.768Z,1.00
2023-05-20T05:02:46.966Z,1.00
2023-05-20T05:05:15.436Z,1.00
2023-05-20T05:07:43.688Z,1.00
2023-05-20T05:10:13.306Z,1.00
2023-05-20T05:12:41.560Z,1.00
2023-05-20T05:15:11.178Z,1.00
2023-05-20T05:17:39.475Z,1.00
2023-05-20T05:20:11.176Z,1.00
2023-05-20T05:22:41.299Z,1.00
2023-05-20T05:25:11.361Z,1.00
2023-05-20T05:27:40.188Z,1.00
2023-05-20T05:30:09.965Z,1.00
2023-05-20T05:32:38.998Z,1.00
2023-05-20T05:35:09.831Z,1.00
2023-05-20T05:37:38.099Z,1.00
2023-05-20T05:40:10.125Z,1.00
2023-05-20T05:42:38.365Z,1.00
2023-05-20T05:45:07.947Z,1.00
2023-05-20T05:47:36.438Z,1.00
2023-05-20T05:50:05.088Z,1.00
2023-05-20T05:52:34.695Z,1.00
2023-05-20T05:55:03.921Z,1.00
2023-05-20T05:57:32.303Z,1.00
2023-05-20T06:00:00.986Z,1.00
2023-05-20T06:02:29.378Z,1.00
2023-05-20T06:04:57.763Z,1.00
2023-05-20T06:07:25.944Z,1.00
2023-05-20T06:09:55.636Z,1.00
2023-05-20T06:12:24.033Z,1.00
2023-05-20T06:14:52.410Z,99.90
2023-05-20T06:17:20.713Z,80.30
2023-05-20T06:19:48.943Z,99.90
2023-05-20T06:22:17.214Z,99.90
2023-05-20T06:24:45.519Z,99.90
2023-05-20T06:27:15.208Z,99.90
2023-05-20T06:29:44.014Z,99.90
2023-05-20T06:32:12.429Z,99.90
2023-05-20T06:34:41.099Z,99.90
2023-05-20T06:37:09.311Z,1.00
2023-05-20T06:39:37.556Z,99.90
2023-05-20T06:42:06.504Z,99.90
2023-05-20T06:44:36.059Z,99.90
2023-05-20T06:47:04.435Z,1.00
2023-05-20T06:49:32.630Z,22.60
2023-05-20T06:52:00.918Z,14.70
2023-05-20T06:54:29.172Z,1.00
2023-05-20T06:56:57.487Z,1.00
2023-05-20T06:59:25.735Z,1.00
2023-05-20T07:01:55.299Z,99.90
2023-05-20T07:04:23.523Z,99.90
2023-05-20T07:06:51.991Z,1.00
2023-05-20T07:09:20.168Z,1.00
2023-05-20T07:11:48.540Z,1.00
2023-05-20T07:14:16.756Z,99.90
2023-05-20T07:16:44.988Z,99.90
2023-05-20T07:19:14.564Z,1.00
2023-05-20T07:21:52.194Z,99.90
2023-05-20T07:24:20.438Z,99.90
2023-05-20T07:26:48.650Z,1.00
2023-05-20T07:29:16.871Z,1.00
2023-05-20T07:31:45.159Z,1.00
2023-05-20T07:34:14.777Z,99.90
2023-05-20T07:36:43.723Z,99.90
2023-05-20T07:39:14.950Z,99.90
2023-05-20T07:41:43.717Z,99.90
2023-05-20T07:44:12.984Z,99.90
2023-05-20T07:46:41.857Z,99.90
2023-05-20T07:49:10.276Z,1.00
2023-05-20T07:51:39.904Z,1.00
2023-05-20T07:54:08.197Z,99.90
2023-05-20T07:56:36.491Z,39.70
2023-05-20T07:59:04.889Z,2.00
2023-05-20T08:01:33.513Z,1.00
2023-05-20T08:04:01.947Z,1.00
2023-05-20T08:06:30.222Z,99.90
2023-05-20T08:08:59.962Z,99.90
2023-05-20T08:11:28.315Z,99.90
2023-05-20T08:13:56.589Z,99.90
2023-05-20T08:16:24.857Z,1.00
2023-05-20T08:18:53.110Z,71.00
2023-05-20T08:21:21.725Z,1.00
2023-05-20T08:23:50.134Z,1.00
2023-05-20T08:26:20.196Z,1.00
2023-05-20T08:28:48.559Z,10.40
2023-05-20T08:31:17.855Z,1.00
2023-05-20T08:33:46.137Z,1.00
2023-05-20T08:36:14.760Z,1.00
2023-05-20T08:38:43.583Z,1.00
2023-05-20T08:41:11.843Z,1.00
2023-05-20T08:43:42.039Z,1.00
2023-05-20T08:46:11.690Z,30.50
2023-05-20T08:48:40.991Z,99.90
2023-05-20T08:51:12.158Z,1.00
2023-05-20T08:53:41.489Z,1.00
2023-05-20T08:56:12.536Z,99.90
2023-05-20T08:58:43.024Z,1.00
2023-05-20T09:01:11.275Z,1.00
2023-05-20T09:03:39.599Z,65.60
2023-05-20T09:06:10.016Z,55.90
2023-05-20T09:08:38.780Z,25.00
2023-05-20T09:11:07.099Z,20.10
2023-05-20T09:13:35.597Z,99.90
2023-05-20T09:16:05.788Z,99.90
2023-05-20T09:18:34.337Z,1.00
2023-05-20T09:21:07.869Z,99.90
2023-05-20T09:23:39.145Z,99.90
2023-05-20T09:26:07.701Z,99.90
2023-05-20T09:28:38.308Z,1.00
2023-05-20T09:31:09.515Z,1.00
2023-05-20T09:33:39.580Z,1.00
2023-05-20T09:36:10.658Z,1.00
2023-05-20T09:38:41.581Z,1.00
2023-05-20T09:41:13.716Z,1.00
2023-05-20T09:43:42.723Z,1.00
2023-05-20T09:46:13.007Z,1.00
2023-05-20T09:48:41.756Z,1.00
2023-05-20T09:51:13.431Z,1.00
2023-05-20T09:53:43.297Z,1.00
2023-05-20T09:56:12.188Z,99.90
2023-05-20T09:58:43.530Z,99.90
2023-05-20T10:01:13.501Z,1.00
2023-05-20T10:03:44.157Z,1.00
2023-05-20T10:06:37.591Z,1.00
2023-05-20T10:09:33.411Z,19.10
2023-05-20T10:12:20.461Z,66.60
2023-05-20T10:15:04.020Z,99.90
2023-05-20T10:17:47.674Z,55.30
2023-05-20T10:20:16.662Z,1.00
2023-05-20T10:22:45.353Z,1.00
2023-05-20T10:25:26.552Z,1.00
2023-05-20T10:28:08.900Z,1.00
2023-05-20T10:30:39.911Z,1.00
2023-05-20T10:33:19.159Z,1.00
2023-05-20T10:35:52.252Z,1.00
2023-05-20T10:38:22.024Z,1.00
2023-05-20T10:40:50.373Z,1.00
2023-05-20T10:43:28.616Z,1.00
2023-05-20T10:46:00.267Z,1.00
2023-05-20T10:48:32.887Z,1.00
2023-05-20T10:51:04.774Z,1.00
2023-05-20T10:53:42.201Z,99.90
2023-05-20T10:56:19.653Z,99.90
2023-05-20T10:58:48.846Z,99.90
2023-05-20T11:01:19.158Z,99.90
2023-05-20T11:03:51.082Z,99.90
2023-05-20T11:06:20.360Z,99.90
2023-05-20T11:08:48.609Z,99.90
2023-05-20T11:11:17.186Z,99.90
2023-05-20T11:13:45.526Z,99.90
2023-05-20T11:16:14.213Z,99.90
2023-05-20T11:18:42.592Z,99.90
2023-05-20T11:21:12.399Z,99.90
2023-05-20T11:23:40.860Z,99.90
2023-05-20T11:26:09.451Z,99.90
2023-05-20T11:28:39.382Z,99.90
2023-05-20T11:31:08.210Z,99.90
2023-05-20T11:33:36.662Z,99.90
2023-05-20T11:36:08.748Z,99.90
2023-05-20T11:38:43.876Z,99.90
2023-05-20T11:41:12.197Z,99.90
2023-05-20T11:43:42.730Z,99.90
2023-05-20T11:46:11.646Z,99.90
2023-05-20T11:48:42.031Z,99.90
2023-05-20T11:51:10.375Z,99.90
2023-05-20T11:53:44.134Z,99.90
2023-05-20T11:56:12.703Z,99.90
2023-05-20T11:58:41.403Z,99.90
2023-05-20T12:01:21.731Z,99.90
2023-05-20T12:03:51.614Z,99.90
2023-05-20T12:06:20.794Z,99.90
2023-05-20T12:08:50.330Z,99.90
2023-05-20T12:11:19.008Z,99.90
2023-05-20T12:13:47.340Z,99.90
2023-05-20T12:16:15.908Z,99.90
2023-05-20T12:18:44.167Z,99.90
2023-05-20T12:21:12.478Z,99.90
2023-05-20T12:23:40.820Z,99.90
2023-05-20T12:26:10.552Z,99.90
2023-05-20T12:28:38.779Z,99.90
2023-05-20T12:31:07.746Z,99.90
2023-05-20T12:33:35.986Z,99.90
2023-05-20T12:36:04.285Z,99.90
2023-05-20T12:38:32.504Z,99.90
2023-05-20T12:41:00.814Z,99.90
2023-05-20T12:43:30.385Z,99.90
2023-05-20T12:45:58.678Z,99.90
2023-05-20T12:48:26.981Z,99.90
2023-05-20T12:50:55.176Z,99.90
2023-05-20T12:53:23.336Z,99.90
2023-05-20T12:55:51.651Z,99.90
2023-05-20T12:58:19.855Z,99.90
2023-05-20T13:00:49.903Z,99.90
2023-05-20T13:03:18.314Z,99.90
2023-05-20T13:05:47.171Z,99.90
2023-05-20T13:08:15.448Z,99.90
2023-05-20T13:10:43.688Z,99.90
2023-05-20T13:13:13.782Z,99.70
2023-05-20T13:15:42.001Z,90.10
2023-05-20T13:18:11.711Z,82.00
2023-05-20T13:20:40.468Z,80.60
2023-05-20T13:23:09.230Z,79.80
2023-05-20T13:25:37.719Z,82.10
2023-05-20T13:28:10.999Z,82.90
2023-05-20T13:30:39.465Z,77.60
2023-05-20T13:33:07.974Z,78.80
2023-05-20T13:35:37.741Z,78.80
2023-05-20T13:38:06.058Z,74.60
2023-05-20T13:40:34.642Z,74.10
2023-05-20T13:43:02.992Z,77.10
2023-05-20T13:45:31.301Z,76.90
2023-05-20T13:47:59.720Z,71.20
2023-05-20T13:50:28.038Z,86.60
2023-05-20T13:52:57.619Z,60.50
2023-05-20T13:55:26.045Z,58.20
2023-05-20T13:57:54.378Z,58.30
2023-05-20T14:00:22.754Z,56.40
2023-05-20T14:02:51.127Z,55.10
2023-05-20T14:05:19.568Z,52.80
2023-05-20T14:07:47.777Z,51.50
2023-05-20T14:10:20.263Z,52.80
2023-05-20T14:12:48.841Z,62.20
2023-05-20T14:15:17.207Z,80.50
2023-05-20T14:17:45.805Z,96.10
2023-05-20T14:20:15.782Z,99.90
2023-05-20T14:22:44.479Z,98.40
2023-05-20T14:25:12.975Z,90.80
2023-05-20T14:27:42.809Z,72.40
2023-05-20T14:30:12.591Z,68.70
2023-05-20T14:32:40.930Z,66.60
2023-05-20T14:35:10.094Z,62.20
2023-05-20T14:37:38.317Z,56.10
2023-05-20T14:40:08.214Z,50.60
2023-05-20T14:42:37.543Z,51.00
2023-05-20T14:45:08.918Z,50.00
2023-05-20T14:47:40.000Z,48.70
2023-05-20T14:50:09.246Z,47.90
2023-05-20T14:52:37.457Z,46.90
2023-05-20T14:55:08.072Z,44.90
2023-05-20T14:57:36.291Z,40.90
2023-05-20T15:00:07.085Z,40.80
2023-05-20T15:02:35.667Z,42.00
2023-05-20T15:05:03.953Z,40.40
2023-05-20T15:07:32.154Z,38.80
2023-05-20T15:10:00.421Z,40.30
2023-05-20T15:12:28.683Z,43.50
2023-05-20T15:14:56.999Z,43.20
2023-05-20T15:17:26.680Z,45.00
2023-05-20T15:19:55.024Z,50.90
2023-05-20T15:22:23.268Z,54.80
2023-05-20T15:24:51.522Z,64.20
2023-05-20T15:27:19.943Z,73.90
2023-05-20T15:29:48.612Z,87.40
2023-05-20T15:32:17.523Z,99.90
2023-05-20T15:34:47.269Z,99.60
2023-05-20T15:37:16.218Z,99.90
2023-05-20T15:39:44.658Z,99.90
2023-05-20T15:42:13.972Z,99.90
2023-05-20T15:44:42.216Z,99.90
2023-05-20T15:47:10.768Z,99.90
2023-05-20T15:49:39.051Z,99.90
2023-05-20T15:52:09.063Z,99.90
2023-05-20T15:54:37.295Z,99.90
2023-05-20T15:57:06.327Z,99.90
2023-05-20T15:59:34.639Z,99.90
2023-05-20T16:02:03.002Z,99.90
2023-05-20T16:04:32.527Z,99.90
2023-05-20T16:07:00.958Z,99.90
2023-05-20T16:09:31.101Z,99.90
2023-05-20T16:11:59.511Z,99.90
2023-05-20T16:14:27.804Z,99.90
2023-05-20T16:16:56.042Z,99.90
2023-05-20T16:19:24.388Z,99.90
2023-05-20T16:21:52.661Z,99.90
2023-05-20T16:24:21.026Z,99.90
2023-05-20T16:26:50.627Z,99.90
2023-05-20T16:29:18.853Z,99.90
2023-05-20T16:31:47.426Z,99.90
2023-05-20T16:34:16.886Z,99.90
2023-05-20T16:36:46.223Z,99.90
2023-05-20T16:39:14.722Z,99.90
2023-05-20T16:41:43.690Z,99.90
2023-05-20T16:44:13.292Z,99.90
2023-05-20T16:46:41.579Z,99.90
2023-05-20T16:49:09.862Z,99.90
2023-05-20T16:51:38.208Z,99.90
2023-05-20T16:54:06.416Z,99.90
2023-05-20T16:56:35.310Z,99.90
2023-05-20T16:59:03.851Z,99.90
2023-05-20T17:01:33.578Z,99.90
2023-05-20T17:04:02.000Z,99.90
2023-05-20T17:06:34.206Z,99.90
2023-05-20T17:09:04.903Z,99.90
2023-05-20T17:11:33.759Z,99.90
2023-05-20T17:14:02.954Z,99.90
2023-05-20T17:16:32.659Z,99.90
2023-05-20T17:19:01.296Z,99.90
2023-05-20T17:21:29.559Z,99.90
2023-05-20T17:23:57.816Z,99.90
2023-05-20T17:26:26.255Z,99.90
2023-05-20T17:28:54.585Z,99.90
2023-05-20T17:31:23.043Z,99.90
2023-05-20T17:33:52.831Z,99.90
2023-05-20T17:36:23.175Z,99.90
2023-05-20T17:38:51.957Z,99.90
2023-05-20T17:41:20.235Z,99.90
2023-05-20T17:43:48.543Z,99.90
2023-05-20T17:46:17.103Z,99.90
2023-05-20T17:48:45.685Z,99.90
2023-05-20T17:51:15.522Z,99.90
2023-05-20T17:53:43.806Z,99.90
2023-05-20T17:56:12.331Z,99.90
2023-05-20T17:58:40.639Z,99.90
2023-05-20T18:01:09.722Z,99.90
2023-05-20T18:03:39.703Z,99.90
2023-05-20T18:06:08.804Z,99.90
2023-05-20T18:08:38.571Z,99.90
2023-05-20T18:11:06.861Z,1.00
2023-05-20T18:13:35.161Z,1.00
2023-05-20T18:16:03.494Z,1.00
2023-05-20T18:18:31.848Z,1.00
2023-05-20T18:21:00.196Z,1.00
2023-05-20T18:23:28.747Z,1.00
2023-05-20T18:25:58.734Z,1.00
2023-05-20T18:28:27.112Z,1.00
2023-05-20T18:30:57.446Z,1.00
2023-05-20T18:33:26.188Z,1.00
2023-05-20T18:35:54.915Z,1.00
2023-05-20T18:38:23.381Z,1.00
2023-05-20T18:40:51.919Z,1.00
2023-05-20T18:43:21.657Z,1.00
2023-05-20T18:45:50.033Z,1.00
2023-05-20T18:48:26.135Z,1.00
2023-05-20T18:50:55.626Z,1.00
2023-05-20T18:53:23.931Z,1.00
2023-05-20T18:55:52.395Z,1.00
2023-05-20T18:58:22.390Z,79.60
2023-05-20T19:00:51.142Z,99.90
2023-05-20T19:03:19.821Z,99.90
2023-05-20T19:05:48.203Z,99.90
2023-05-20T19:08:16.652Z,99.90
2023-05-20T19:10:45.107Z,99.90
2023-05-20T19:13:13.703Z,99.90
2023-05-20T19:15:43.488Z,99.90
2023-05-20T19:18:12.305Z,1.00
2023-05-20T19:20:40.808Z,1.00
2023-05-20T19:23:09.148Z,1.00
2023-05-20T19:25:37.658Z,1.00
2023-05-20T19:28:06.356Z,1.00
2023-05-20T19:30:34.659Z,1.00
2023-05-20T19:33:06.673Z,13.60
2023-05-20T19:35:35.302Z,59.00
2023-05-20T19:38:04.958Z,99.90
2023-05-20T19:40:33.495Z,99.90
2023-05-20T19:43:01.797Z,99.90
2023-05-20T19:45:30.116Z,1.00
2023-05-20T19:47:58.468Z,1.00
2023-05-20T19:50:28.068Z,1.00
2023-05-20T19:52:56.325Z,82.30
2023-05-20T19:55:24.881Z,99.90
2023-05-20T19:57:53.533Z,99.90
2023-05-20T20:00:21.991Z,1.00
2023-05-20T20:02:50.786Z,1.00
2023-05-20T20:05:22.285Z,1.00
2023-05-20T20:07:53.864Z,99.90
2023-05-20T20:10:22.510Z,99.90
2023-05-20T20:12:50.898Z,1.00
2023-05-20T20:15:20.645Z,1.00
2023-05-20T20:17:52.235Z,63.80
2023-05-20T20:20:20.987Z,99.90
2023-05-20T20:22:49.488Z,99.90
2023-05-20T20:25:20.431Z,99.90
2023-05-20T20:27:50.039Z,1.00
2023-05-20T20:30:18.350Z,1.00
2023-05-20T20:32:48.215Z,8.20
2023-05-20T20:35:17.386Z,99.90
2023-05-20T20:37:46.005Z,1.00
2023-05-20T20:40:22.039Z,1.00
2023-05-20T20:42:50.580Z,99.90
2023-05-20T20:45:22.737Z,86.40
2023-05-20T20:47:55.022Z,1.00
2023-05-20T20:50:23.609Z,1.00
2023-05-20T20:52:51.895Z,1.00
2023-05-20T20:55:21.807Z,99.90
2023-05-20T20:57:51.431Z,1.00
2023-05-20T21:00:21.236Z,1.00
2023-05-20T21:02:49.894Z,1.00
2023-05-20T21:05:20.703Z,1.00
2023-05-20T21:08:03.908Z,91.80
2023-05-20T21:10:35.906Z,99.90
2023-05-20T21:13:07.614Z,99.90
2023-05-20T21:15:36.514Z,99.90
2023-05-20T21:18:21.818Z,1.00
2023-05-20T21:20:52.429Z,1.00
2023-05-20T21:23:22.198Z,1.00
2023-05-20T21:25:51.927Z,1.00
2023-05-20T21:28:20.243Z,99.90
2023-05-20T21:30:48.444Z,99.90
2023-05-20T21:33:16.752Z,99.90
2023-05-20T21:35:45.329Z,99.90
2023-05-20T21:38:14.184Z,99.90
2023-05-20T21:40:43.104Z,1.00
2023-05-20T21:43:12.800Z,1.00
2023-05-20T21:45:41.010Z,1.00
2023-05-20T21:48:09.635Z,1.00
2023-05-20T21:50:37.842Z,1.00
2023-05-20T21:53:06.114Z,1.00
2023-05-20T21:55:34.478Z,1.00
2023-05-20T21:58:02.870Z,1.00
2023-05-20T22:00:32.821Z,1.00
2023-05-20T22:03:01.110Z,1.00
2023-05-20T22:05:29.556Z,1.00
2023-05-20T22:08:00.372Z,1.00
2023-05-20T22:10:28.752Z,1.00
2023-05-20T22:12:58.082Z,1.00
2023-05-20T22:15:26.789Z,1.00
2023-05-20T22:17:56.973Z,1.00
2023-05-20T22:20:28.661Z,1.00
2023-05-20T22:22:56.888Z,1.00
2023-05-20T22:25:25.220Z,1.00
2023-05-20T22:27:53.526Z,1.00
2023-05-20T22:30:21.825Z,1.00
2023-05-20T22:32:50.018Z,1.00
2023-05-20T22:35:19.742Z,1.00
2023-05-20T22:37:48.251Z,1.00
2023-05-20T22:40:16.863Z,1.00
2023-05-20T22:42:45.141Z,1.00
2023-05-20T22:45:13.407Z,1.00
2023-05-20T22:47:41.799Z,1.00
2023-05-20T22:50:13.501Z,1.00
2023-05-20T22:52:44.319Z,1.00
2023-05-20T22:55:12.723Z,1.00
2023-05-20T22:57:40.933Z,1.00
2023-05-20T23:00:13.996Z,1.00
2023-05-20T23:02:42.557Z,1.00
2023-05-20T23:05:11.862Z,1.00
2023-05-20T23:07:40.063Z,1.00
2023-05-20T23:10:10.712Z,1.00
2023-05-20T23:12:39.081Z,1.00
2023-05-20T23:15:09.542Z,1.00
2023-05-20T23:17:39.395Z,1.00
2023-05-20T23:20:10.821Z,1.00
2023-05-20T23:22:39.463Z,1.00
2023-05-20T23:25:10.789Z,1.00
2023-05-20T23:27:39.152Z,1.00
2023-05-20T23:30:09.576Z,1.00
2023-05-20T23:32:38.137Z,1.00
2023-05-20T23:35:07.892Z,30.20
2023-05-20T23:37:36.301Z,62.30
2023-05-20T23:40:06.549Z,93.80
2023-05-20T23:42:36.438Z,60.40
2023-05-20T23:45:08.430Z,38.90
2023-05-20T23:47:37.796Z,68.10
2023-05-20T23:50:07.300Z,90.80
2023-05-20T23:52:36.056Z,99.90
2023-05-20T23:55:04.854Z,99.90
2023-05-20T23:57:33.146Z,99.50
